createdAt,value
2019-06-10T00:02:05.110Z,4.85
2019-06-10T00:04:34.230Z,5.75
2019-06-10T00:07:05.425Z,5.33
2019-06-10T00:09:35.485Z,5.53
2019-06-10T00:12:06.403Z,5.08
2019-06-10T00:14:36.516Z,4.70
2019-06-10T00:17:07.631Z,5.08
2019-06-10T00:19:37.336Z,5.60
2019-06-10T00:22:08.416Z,4.85
2019-06-10T00:24:40.780Z,4.85
2019-06-10T00:27:11.613Z,4.67
2019-06-10T00:29:40.897Z,5.33
2019-06-10T00:32:13.170Z,5.85
2019-06-10T00:34:42.049Z,4.62
2019-06-10T00:37:14.552Z,5.87
2019-06-10T00:39:42.533Z,5.17
2019-06-10T00:42:15.095Z,4.50
2019-06-10T00:44:43.089Z,5.30
2019-06-10T00:47:14.996Z,5.53
2019-06-10T00:49:43.712Z,5.12
2019-06-10T00:52:13.973Z,4.70
2019-06-10T00:54:43.657Z,6.03
2019-06-10T00:57:13.769Z,6.37
2019-06-10T00:59:43.204Z,5.03
2019-06-10T01:02:14.427Z,5.03
2019-06-10T01:04:44.125Z,5.12
2019-06-10T01:07:14.849Z,5.60
2019-06-10T01:09:44.545Z,4.95
2019-06-10T01:12:15.027Z,5.30
2019-06-10T01:14:45.552Z,4.70
2019-06-10T01:17:15.601Z,4.58
2019-06-10T01:19:45.176Z,5.20
2019-06-10T01:22:15.938Z,5.10
2019-06-10T01:24:45.715Z,5.60
2019-06-10T01:27:15.275Z,5.78
2019-06-10T01:29:44.655Z,6.10
2019-06-10T01:32:15.064Z,5.90
2019-06-10T01:34:44.554Z,5.35
2019-06-10T01:37:14.753Z,6.22
2019-06-10T01:39:45.010Z,5.75
2019-06-10T01:42:15.912Z,6.22
2019-06-10T01:44:45.647Z,5.58
2019-06-10T01:47:17.476Z,5.65
2019-06-10T01:49:47.127Z,5.67
2019-06-10T01:52:17.851Z,6.78
2019-06-10T01:54:47.670Z,6.95
2019-06-10T01:57:18.497Z,7.00
2019-06-10T01:59:50.721Z,5.83
2019-06-10T02:02:23.684Z,6.22
2019-06-10T02:04:52.053Z,6.08
2019-06-10T02:07:23.062Z,6.30
2019-06-10T02:09:52.716Z,6.42
2019-06-10T02:12:24.031Z,5.97
2019-06-10T02:14:53.217Z,6.47
2019-06-10T02:17:23.973Z,6.33
2019-06-10T02:19:53.795Z,6.33
2019-06-10T02:22:24.224Z,6.33
2019-06-10T02:24:54.083Z,7.37
2019-06-10T02:27:23.563Z,6.55
2019-06-10T02:29:53.039Z,7.10
2019-06-10T02:32:31.379Z,7.15
2019-06-10T02:35:08.189Z,6.25
2019-06-10T02:37:31.875Z,6.67
2019-06-10T02:39:57.164Z,6.72
2019-06-10T02:42:30.448Z,6.78
2019-06-10T02:44:59.258Z,7.25
2019-06-10T02:47:33.511Z,7.58
2019-06-10T02:50:07.003Z,7.65
2019-06-10T02:52:34.383Z,6.65
2019-06-10T02:55:04.131Z,6.97
2019-06-10T02:57:39.815Z,6.22
2019-06-10T03:00:22.345Z,6.25
2019-06-10T03:02:44.957Z,6.60
2019-06-10T03:05:14.634Z,6.85
2019-06-10T03:07:44.952Z,6.45
2019-06-10T03:10:16.367Z,6.67
2019-06-10T03:12:45.900Z,7.35
2019-06-10T03:15:15.735Z,6.65
2019-06-10T03:17:46.201Z,6.58
2019-06-10T03:20:15.989Z,6.72
2019-06-10T03:22:45.458Z,6.53
2019-06-10T03:25:16.009Z,6.67
2019-06-10T03:27:45.830Z,5.97
2019-06-10T03:30:25.399Z,7.12
2019-06-10T03:32:47.660Z,6.53
2019-06-10T03:35:19.241Z,6.87
2019-06-10T03:37:48.843Z,7.30
2019-06-10T03:40:18.509Z,7.42
2019-06-10T03:42:47.911Z,7.15
2019-06-10T03:45:17.582Z,7.17
2019-06-10T03:47:46.926Z,6.78
2019-06-10T03:50:17.167Z,7.78
2019-06-10T03:52:46.665Z,6.90
2019-06-10T03:55:17.228Z,7.00
2019-06-10T03:57:47.596Z,7.22
2019-06-10T04:00:17.561Z,8.30
2019-06-10T04:02:46.995Z,7.42
2019-06-10T04:05:17.505Z,7.60
2019-06-10T04:07:46.865Z,8.20
2019-06-10T04:10:17.562Z,7.95
2019-06-10T04:12:46.967Z,7.22
2019-06-10T04:15:17.651Z,7.75
2019-06-10T04:17:47.071Z,8.03
2019-06-10T04:20:17.771Z,8.63
2019-06-10T04:22:47.292Z,7.50
2019-06-10T04:25:17.789Z,8.23
2019-06-10T04:27:47.451Z,9.00
2019-06-10T04:30:18.295Z,8.83
2019-06-10T04:32:48.654Z,9.48
2019-06-10T04:35:18.323Z,9.10
2019-06-10T04:37:48.016Z,9.15
2019-06-10T04:40:18.449Z,8.40
2019-06-10T04:42:47.903Z,8.63
2019-06-10T04:45:18.679Z,8.25
2019-06-10T04:47:49.256Z,9.28
2019-06-10T04:50:27.082Z,8.88
2019-06-10T04:52:49.716Z,9.03
2019-06-10T04:55:19.231Z,9.55
2019-06-10T04:57:48.626Z,9.58
2019-06-10T05:00:19.174Z,10.32
2019-06-10T05:02:52.089Z,11.20
2019-06-10T05:05:23.652Z,9.25
2019-06-10T05:07:52.097Z,10.70
2019-06-10T05:10:23.683Z,10.38
2019-06-10T05:12:52.707Z,10.88
2019-06-10T05:15:24.918Z,10.53
2019-06-10T05:17:53.148Z,10.25
2019-06-10T05:20:39.123Z,11.15
2019-06-10T05:22:54.010Z,11.65
2019-06-10T05:25:25.334Z,10.58
2019-06-10T05:27:54.740Z,10.40
2019-06-10T05:30:26.290Z,10.08
2019-06-10T05:32:55.260Z,10.25
2019-06-10T05:35:26.946Z,10.72
2019-06-10T05:37:55.998Z,9.48
2019-06-10T05:40:26.536Z,10.05
2019-06-10T05:42:56.500Z,9.08
2019-06-10T05:45:27.469Z,9.40
2019-06-10T05:47:57.023Z,9.08
2019-06-10T05:50:26.794Z,9.05
2019-06-10T05:52:56.265Z,10.18
2019-06-10T05:55:27.027Z,8.33
2019-06-10T05:57:56.462Z,8.70
2019-06-10T06:00:26.151Z,9.65
2019-06-10T06:02:56.088Z,8.80
2019-06-10T06:05:26.034Z,9.05
2019-06-10T06:08:04.430Z,8.95
2019-06-10T06:10:27.255Z,8.23
2019-06-10T06:12:56.913Z,8.78
2019-06-10T06:15:27.429Z,8.33
2019-06-10T06:18:09.259Z,8.43
2019-06-10T06:20:29.283Z,8.00
2019-06-10T06:22:58.724Z,8.25
2019-06-10T06:25:30.510Z,9.00
2019-06-10T06:28:02.855Z,8.13
2019-06-10T06:30:33.325Z,8.95
2019-06-10T06:33:03.010Z,7.60
2019-06-10T06:35:33.945Z,8.20
2019-06-10T06:38:05.990Z,8.90
2019-06-10T06:40:37.258Z,8.73
2019-06-10T06:43:07.012Z,8.00
2019-06-10T06:45:37.763Z,7.80
2019-06-10T06:48:07.501Z,8.15
2019-06-10T06:50:41.586Z,8.18
2019-06-10T06:53:22.608Z,8.30
2019-06-10T06:55:39.769Z,7.10
2019-06-10T06:58:09.287Z,8.08
2019-06-10T07:00:59.843Z,7.45
2019-06-10T07:03:09.834Z,7.42
2019-06-10T07:05:43.178Z,6.75
2019-06-10T07:08:13.195Z,6.25
2019-06-10T07:10:43.568Z,7.22
2019-06-10T07:13:13.077Z,6.78
2019-06-10T07:15:46.857Z,7.08
2019-06-10T07:18:16.162Z,6.13
2019-06-10T07:20:45.999Z,6.90
2019-06-10T07:23:17.988Z,7.30
2019-06-10T07:25:47.816Z,7.28
2019-06-10T07:28:17.572Z,7.25
2019-06-10T07:30:51.705Z,7.17
2019-06-10T07:33:18.320Z,7.28
2019-06-10T07:35:47.698Z,6.85
2019-06-10T07:38:17.103Z,7.30
2019-06-10T07:40:46.585Z,7.62
2019-06-10T07:43:15.978Z,7.10
2019-06-10T07:45:47.962Z,7.08
2019-06-10T07:48:16.453Z,7.08
2019-06-10T07:50:45.984Z,7.15
2019-06-10T07:53:15.412Z,7.42
2019-06-10T07:55:46.520Z,6.90
2019-06-10T07:58:16.040Z,7.65
2019-06-10T08:00:48.026Z,6.78
2019-06-10T08:03:16.714Z,7.00
2019-06-10T08:05:46.712Z,7.50
2019-06-10T08:08:17.304Z,6.47
2019-06-10T08:10:48.122Z,6.65
2019-06-10T08:13:17.703Z,6.25
2019-06-10T08:15:48.412Z,6.40
2019-06-10T08:18:17.897Z,6.87
2019-06-10T08:20:48.108Z,6.10
2019-06-10T08:23:19.431Z,6.67
2019-06-10T08:25:54.698Z,6.45
2019-06-10T08:28:23.022Z,6.20
2019-06-10T08:30:53.171Z,5.92
2019-06-10T08:33:24.211Z,6.30
2019-06-10T08:35:59.933Z,6.20
2019-06-10T08:38:24.723Z,7.08
2019-06-10T08:40:54.334Z,5.83
2019-06-10T08:43:23.956Z,6.58
2019-06-10T08:45:53.342Z,5.85
2019-06-10T08:48:23.098Z,5.70
2019-06-10T08:50:53.660Z,6.60
2019-06-10T08:53:24.278Z,6.37
2019-06-10T08:55:56.026Z,6.50
2019-06-10T08:58:25.398Z,6.62
2019-06-10T09:00:54.882Z,6.40
2019-06-10T09:03:24.273Z,6.65
2019-06-10T09:05:57.688Z,7.72
2019-06-10T09:08:25.575Z,6.60
2019-06-10T09:10:55.527Z,7.45
2019-06-10T09:13:25.270Z,7.10
2019-06-10T09:16:09.759Z,6.75
2019-06-10T09:18:25.819Z,6.58
2019-06-10T09:20:56.174Z,7.50
2019-06-10T09:23:26.638Z,6.72
2019-06-10T09:25:57.611Z,7.35
2019-06-10T09:28:28.445Z,6.75
2019-06-10T09:30:59.099Z,7.78
2019-06-10T09:33:29.664Z,6.87
2019-06-10T09:35:59.605Z,7.17
2019-06-10T09:38:29.056Z,7.00
2019-06-10T09:41:01.663Z,6.70
2019-06-10T09:43:29.721Z,7.87
2019-06-10T09:45:59.369Z,7.45
2019-06-10T09:48:29.885Z,6.33
2019-06-10T09:50:59.462Z,7.65
2019-06-10T09:53:35.739Z,7.05
2019-06-10T09:56:03.800Z,7.25
2019-06-10T09:58:32.991Z,6.70
2019-06-10T10:01:03.594Z,7.40
2019-06-10T10:03:33.976Z,7.28
2019-06-10T10:06:13.977Z,6.80
2019-06-10T10:08:36.768Z,6.80
2019-06-10T10:11:06.422Z,6.90
2019-06-10T10:13:35.946Z,7.47
2019-06-10T10:16:06.516Z,6.95
2019-06-10T10:18:36.176Z,7.55
2019-06-10T10:21:06.653Z,6.67
2019-06-10T10:23:52.625Z,7.78
2019-06-10T10:26:07.678Z,7.50
2019-06-10T10:28:37.107Z,6.67
2019-06-10T10:31:07.935Z,7.22
2019-06-10T10:33:37.428Z,7.62
2019-06-10T10:36:06.865Z,8.68
2019-06-10T10:38:36.427Z,8.65
2019-06-10T10:41:06.024Z,6.90
2019-06-10T10:43:37.666Z,7.33
2019-06-10T10:46:06.709Z,7.17
2019-06-10T10:48:36.526Z,6.78
2019-06-10T10:51:06.576Z,7.12
2019-06-10T10:53:36.143Z,7.78
2019-06-10T10:56:05.762Z,6.45
2019-06-10T10:58:35.589Z,6.62
2019-06-10T11:01:05.242Z,7.17
2019-06-10T11:03:34.985Z,7.12
2019-06-10T11:06:05.019Z,7.72
2019-06-10T11:08:34.487Z,7.10
2019-06-10T11:11:05.848Z,6.20
2019-06-10T11:13:36.857Z,6.58
2019-06-10T11:16:06.747Z,7.47
2019-06-10T11:18:36.637Z,8.00
2019-06-10T11:21:08.775Z,8.80
2019-06-10T11:23:38.184Z,8.53
2019-06-10T11:26:07.573Z,8.70
2019-06-10T11:28:36.945Z,8.08
2019-06-10T11:31:06.358Z,8.15
2019-06-10T11:33:35.806Z,7.92
2019-06-10T11:36:05.776Z,8.10
2019-06-10T11:38:35.415Z,7.95
2019-06-10T11:41:05.174Z,7.75
2019-06-10T11:43:34.695Z,8.53
2019-06-10T11:46:07.746Z,8.88
2019-06-10T11:48:35.642Z,8.70
2019-06-10T11:51:05.400Z,8.10
2019-06-10T11:53:34.944Z,9.00
2019-06-10T11:56:04.643Z,8.25
2019-06-10T11:58:34.154Z,8.40
2019-06-10T12:01:04.228Z,8.65
2019-06-10T12:03:34.132Z,8.08
2019-06-10T12:06:05.365Z,8.93
2019-06-10T12:08:35.099Z,8.85
2019-06-10T12:11:04.938Z,9.43
2019-06-10T12:13:34.880Z,7.85
2019-06-10T12:17:14.816Z,7.47
2019-06-10T12:18:36.619Z,7.42
2019-06-10T12:21:06.206Z,6.55
2019-06-10T12:23:35.604Z,7.15
2019-06-10T12:26:05.481Z,6.90
2019-06-10T12:28:36.256Z,7.33
2019-06-10T12:31:07.311Z,7.92
2019-06-10T12:33:36.812Z,6.80
2019-06-10T12:36:07.395Z,7.62
2019-06-10T12:38:37.068Z,7.55
2019-06-10T12:41:09.024Z,7.50
2019-06-10T12:43:37.738Z,7.58
2019-06-10T12:46:07.198Z,7.22
2019-06-10T12:48:36.662Z,6.75
2019-06-10T12:51:09.308Z,7.58
2019-06-10T12:53:37.379Z,7.00
2019-06-10T12:56:10.645Z,6.92
2019-06-10T12:58:38.027Z,6.12
2019-06-10T13:01:07.988Z,7.12
2019-06-10T13:03:37.591Z,7.30
2019-06-10T13:06:09.189Z,7.65
2019-06-10T13:08:38.901Z,7.20
2019-06-10T13:11:08.487Z,7.30
2019-06-10T13:13:37.841Z,7.75
2019-06-10T13:16:09.127Z,6.97
2019-06-10T13:18:38.733Z,7.37
2019-06-10T13:21:13.341Z,7.90
2019-06-10T13:23:39.227Z,8.03
2019-06-10T13:26:13.108Z,8.93
2019-06-10T13:28:39.807Z,8.80
2019-06-10T13:31:10.184Z,9.23
2019-06-10T13:33:42.721Z,9.65
2019-06-10T13:36:12.354Z,9.98
2019-06-10T13:38:42.823Z,9.95
2019-06-10T13:41:12.507Z,10.53
2019-06-10T13:43:43.413Z,10.03
2019-06-10T13:46:13.124Z,10.70
2019-06-10T13:48:43.232Z,10.88
2019-06-10T13:51:15.590Z,10.45
2019-06-10T13:53:46.397Z,10.32
2019-06-10T13:56:38.149Z,10.85
2019-06-10T13:58:46.614Z,10.98
2019-06-10T14:01:21.355Z,8.40
2019-06-10T14:03:47.209Z,9.00
2019-06-10T14:06:37.050Z,8.85
2019-06-10T14:08:49.082Z,9.03
2019-06-10T14:11:19.180Z,10.18
2019-06-10T14:13:48.993Z,14.87
2019-06-10T14:16:18.465Z,14.40
2019-06-10T14:18:48.156Z,11.35
2019-06-10T14:21:18.594Z,11.00
2019-06-10T14:23:49.207Z,10.53
2019-06-10T14:26:34.541Z,11.33
2019-06-10T14:28:52.422Z,9.48
2019-06-10T14:31:38.714Z,9.35
2019-06-10T14:33:53.292Z,8.08
2019-06-10T14:36:24.339Z,8.23
2019-06-10T14:38:53.794Z,8.33
2019-06-10T14:41:26.049Z,9.43
2019-06-10T14:43:55.929Z,9.40
2019-06-10T14:46:25.827Z,9.30
2019-06-10T14:48:55.447Z,8.90
2019-06-10T14:51:25.020Z,9.55
2019-06-10T14:53:54.517Z,9.35
2019-06-10T14:56:24.001Z,9.38
2019-06-10T14:58:53.393Z,8.88
2019-06-10T15:01:25.650Z,8.68
2019-06-10T15:03:54.120Z,9.85
2019-06-10T15:06:24.656Z,8.43
2019-06-10T15:08:54.009Z,8.10
2019-06-10T15:11:27.375Z,9.30
2019-06-10T15:13:54.655Z,7.80
2019-06-10T15:16:24.069Z,7.90
2019-06-10T15:18:53.705Z,7.00
2019-06-10T15:21:23.419Z,7.05
2019-06-10T15:23:52.769Z,7.90
2019-06-10T15:26:22.187Z,7.35
2019-06-10T15:28:52.228Z,7.47
2019-06-10T15:31:21.769Z,7.37
2019-06-10T15:33:52.516Z,7.62
2019-06-10T15:36:22.094Z,7.42
2019-06-10T15:38:52.580Z,6.83
2019-06-10T15:41:24.637Z,8.53
2019-06-10T15:43:53.476Z,8.23
2019-06-10T15:46:24.006Z,8.43
2019-06-10T15:48:54.183Z,8.00
2019-06-10T15:51:26.105Z,8.98
2019-06-10T15:53:55.710Z,9.03
2019-06-10T15:56:38.753Z,9.10
2019-06-10T15:58:56.196Z,9.38
2019-06-10T16:01:27.348Z,9.98
2019-06-10T16:03:57.566Z,10.82
2019-06-10T16:06:26.939Z,9.85
2019-06-10T16:08:57.495Z,11.75
2019-06-10T16:11:27.363Z,12.35
2019-06-10T16:13:56.899Z,12.50
2019-06-10T16:16:26.318Z,13.30
2019-06-10T16:18:55.701Z,13.98
2019-06-10T16:21:25.101Z,14.75
2019-06-10T16:23:54.524Z,16.65
2019-06-10T16:26:26.780Z,18.82
2019-06-10T16:28:55.171Z,19.60
2019-06-10T16:31:27.209Z,19.05
2019-06-10T16:33:56.445Z,19.12
2019-06-10T16:36:27.934Z,20.10
2019-06-10T16:38:56.976Z,16.60
2019-06-10T16:41:27.932Z,18.62
2019-06-10T16:43:57.617Z,19.27
2019-06-10T16:46:27.050Z,20.52
2019-06-10T16:48:56.522Z,20.23
2019-06-10T16:51:26.045Z,18.92
2019-06-10T16:53:55.430Z,17.62
2019-06-10T16:56:27.364Z,18.40
2019-06-10T16:58:55.948Z,22.48
2019-06-10T17:01:28.283Z,22.02
2019-06-10T17:03:56.890Z,22.65
2019-06-10T17:06:26.865Z,22.75
2019-06-10T17:08:56.439Z,22.87
2019-06-10T17:11:28.757Z,21.75
2019-06-10T17:13:56.940Z,23.65
2019-06-10T17:16:27.779Z,24.57
2019-06-10T17:18:57.482Z,24.27
2019-06-10T17:21:30.387Z,22.95
2019-06-10T17:23:57.968Z,23.00
2019-06-10T17:26:34.467Z,23.50
2019-06-10T17:28:58.477Z,23.20
2019-06-10T17:31:32.077Z,20.70
2019-06-10T17:34:02.561Z,15.65
2019-06-10T17:36:35.108Z,17.95
2019-06-10T17:39:03.041Z,16.55
2019-06-10T17:41:35.227Z,20.00
2019-06-10T17:44:04.986Z,19.70
2019-06-10T17:46:35.208Z,23.75
2019-06-10T17:49:05.321Z,23.80
2019-06-10T17:51:35.682Z,19.40
2019-06-10T17:54:05.693Z,23.38
2019-06-10T17:56:36.369Z,22.27
2019-06-10T17:59:05.901Z,16.10
2019-06-10T18:01:35.718Z,14.20
2019-06-10T18:04:06.325Z,14.30
2019-06-10T18:06:36.476Z,16.02
2019-06-10T18:09:08.126Z,15.30
2019-06-10T18:11:37.527Z,13.65
2019-06-10T18:14:07.096Z,9.60
2019-06-10T18:16:36.845Z,10.30
2019-06-10T18:19:06.901Z,9.58
2019-06-10T18:21:36.593Z,11.20
2019-06-10T18:24:08.454Z,9.65
2019-06-10T18:26:38.069Z,8.80
2019-06-10T18:29:09.395Z,8.33
2019-06-10T18:31:38.943Z,7.50
2019-06-10T18:34:08.894Z,8.18
2019-06-10T18:36:38.346Z,6.95
2019-06-10T18:39:08.193Z,5.55
2019-06-10T18:41:37.998Z,5.85
2019-06-10T18:44:19.762Z,5.60
2019-06-10T18:46:40.137Z,5.90
2019-06-10T18:49:09.617Z,5.58
2019-06-10T18:51:40.227Z,5.28
2019-06-10T18:54:09.875Z,6.58
2019-06-10T18:56:40.054Z,6.00
2019-06-10T18:59:19.886Z,6.70
2019-06-10T19:01:42.355Z,6.50
2019-06-10T19:04:13.049Z,6.92
2019-06-10T19:06:43.252Z,7.20
2019-06-10T19:09:13.055Z,7.55
2019-06-10T19:11:43.425Z,7.30
2019-06-10T19:14:13.024Z,7.22
2019-06-10T19:16:42.928Z,7.67
2019-06-10T19:19:12.893Z,8.05
2019-06-10T19:21:43.907Z,7.53
2019-06-10T19:24:14.560Z,9.38
2019-06-10T19:26:45.176Z,8.78
2019-06-10T19:29:27.522Z,7.92
2019-06-10T19:31:46.491Z,8.35
2019-06-10T19:34:16.011Z,9.00
2019-06-10T19:36:45.418Z,8.08
2019-06-10T19:39:14.884Z,8.10
2019-06-10T19:41:47.191Z,7.90
2019-06-10T19:44:15.460Z,8.78
2019-06-10T19:46:44.849Z,7.50
2019-06-10T19:49:14.288Z,7.78
2019-06-10T19:51:46.349Z,8.83
2019-06-10T19:54:15.076Z,7.95
2019-06-10T19:56:44.933Z,7.92
2019-06-10T19:59:14.329Z,7.67
2019-06-10T20:01:46.720Z,7.58
2019-06-10T20:04:18.000Z,7.28
2019-06-10T20:06:50.411Z,9.03
2019-06-10T20:09:17.433Z,8.20
2019-06-10T20:11:47.500Z,8.73
2019-06-10T20:14:16.898Z,8.83
2019-06-10T20:16:46.326Z,8.15
2019-06-10T20:19:15.697Z,9.30
2019-06-10T20:21:46.660Z,10.10
2019-06-10T20:24:16.302Z,10.05
2019-06-10T20:26:47.777Z,9.40
2019-06-10T20:29:16.859Z,8.98
2019-06-10T20:31:47.527Z,9.00
2019-06-10T20:34:17.831Z,9.23
2019-06-10T20:36:48.284Z,9.63
2019-06-10T20:39:17.725Z,8.93
2019-06-10T20:41:51.974Z,8.10
2019-06-10T20:44:18.390Z,8.75
2019-06-10T20:46:49.263Z,8.88
2019-06-10T20:49:18.925Z,8.53
2019-06-10T20:52:01.371Z,8.40
2019-06-10T20:54:19.394Z,8.08
2019-06-10T20:56:50.433Z,7.75
2019-06-10T20:59:23.198Z,8.23
2019-06-10T21:01:53.620Z,7.37
2019-06-10T21:04:23.702Z,7.25
2019-06-10T21:06:55.461Z,7.55
2019-06-10T21:09:27.005Z,6.97
2019-06-10T21:11:56.432Z,6.90
2019-06-10T21:14:25.823Z,6.55
2019-06-10T21:16:55.298Z,7.78
2019-06-10T21:19:24.959Z,6.95
2019-06-10T21:21:54.950Z,7.25
2019-06-10T21:24:24.465Z,6.90
2019-06-10T21:26:54.930Z,6.67
2019-06-10T21:29:25.602Z,6.17
2019-06-10T21:31:55.234Z,6.15
2019-06-10T21:34:25.758Z,6.33
2019-06-10T21:36:56.113Z,6.62
2019-06-10T21:39:25.592Z,6.20
2019-06-10T21:41:55.222Z,6.75
2019-06-10T21:44:24.649Z,7.03
2019-06-10T21:46:54.161Z,6.58
2019-06-10T21:49:23.973Z,5.83
2019-06-10T21:51:56.781Z,5.90
2019-06-10T21:54:25.502Z,5.83
2019-06-10T21:56:55.966Z,5.92
2019-06-10T21:59:25.326Z,5.78
2019-06-10T22:01:55.670Z,6.30
2019-06-10T22:04:26.298Z,7.00
2019-06-10T22:06:56.344Z,6.53
2019-06-10T22:09:25.843Z,7.08
2019-06-10T22:11:55.907Z,7.37
2019-06-10T22:14:26.370Z,8.48
2019-06-10T22:16:56.490Z,9.03
2019-06-10T22:19:26.290Z,9.30
2019-06-10T22:21:56.791Z,9.33
2019-06-10T22:24:26.234Z,8.35
2019-06-10T22:26:55.645Z,9.23
2019-06-10T22:29:25.459Z,9.85
2019-06-10T22:31:57.260Z,9.98
2019-06-10T22:34:26.719Z,11.05
2019-06-10T22:36:57.581Z,10.05
2019-06-10T22:39:28.530Z,10.10
2019-06-10T22:41:57.940Z,10.93
2019-06-10T22:44:27.342Z,11.28
2019-06-10T22:46:57.404Z,11.00
2019-06-10T22:49:26.899Z,12.35
2019-06-10T22:51:58.416Z,12.43
2019-06-10T22:54:27.670Z,11.53
2019-06-10T22:56:58.424Z,12.43
2019-06-10T22:59:28.746Z,11.95
2019-06-10T23:01:59.941Z,11.57
2019-06-10T23:04:29.395Z,12.50
2019-06-10T23:06:59.941Z,13.15
2019-06-10T23:09:30.070Z,12.58
2019-06-10T23:11:59.604Z,12.55
2019-06-10T23:14:29.024Z,12.20
2019-06-10T23:16:59.999Z,11.97
2019-06-10T23:19:30.037Z,12.70
2019-06-10T23:22:00.600Z,12.07
2019-06-10T23:24:32.270Z,12.07
2019-06-10T23:27:03.063Z,12.33
2019-06-10T23:29:33.388Z,11.63
2019-06-10T23:32:06.800Z,11.22
2019-06-10T23:34:35.463Z,11.80
2019-06-10T23:37:05.245Z,11.33
2019-06-10T23:39:34.717Z,11.18
2019-06-10T23:42:04.555Z,12.53
2019-06-10T23:44:34.323Z,11.38
2019-06-10T23:47:04.380Z,11.53
2019-06-10T23:49:34.547Z,11.73
2019-06-10T23:52:05.512Z,12.43
2019-06-10T23:54:35.141Z,13.10
2019-06-10T23:57:05.883Z,12.20
2019-06-10T23:59:36.105Z,11.88
